Racecast

SEC HS Jamboree #2 (Red)

Munson Park · 5000m · Girls · Varsity · 2012-09-27 · MI

Course difficulty: +0.007

Race-day weather: 60°F · wind 44 mph · humidity 54%

View full meet →

Team scores

Place Team Points 12345 67
1 Saline (MI) 20 2 3 4 5 6 7 8
2 Ann Arbor Huron (MI) 47 1 9 10 11 16 17 22
3 Temperance Bedford (MI) 101 13 19 21 23 25 26 30
4 Ann Arbor Pioneer (MI) 112 15 18 24 27 28 29 35
5 Ann Arbor Skyline (MI) 135 14 20 31 34 36 38 39
6 Monroe (MI) 154 12 32 33 37 40 41 42

Computed: five scorers, two displacers, incomplete teams removed.

Results

Place Athlete Grade School Time Rating Points
1 Alexandria Cell 11 Ann Arbor Huron (MI) 1 19:21.1 SR 127.7 1
2 Alyssa Cummings 12 Saline (MI) 1 19:41.5 125.5 2
3 Hannah Cummings 9 Saline (MI) 2 19:41.6 125.5 3
4 Gloria Park 11 Saline (MI) 3 19:41.9 125.4 4
5 Lauren Green 10 Saline (MI) 4 19:42.2 125.4 5
6 Gillian Walter 9 Saline (MI) 5 19:42.5 125.4 6
7 Elianna Shwayder 11 Saline (MI) 6 19:42.8 125.3 7
8 Abby Rentschler 10 Saline (MI) 7 19:43 125.3 8
9 Lillie Phelps 9 Saline (MI) 8 19:53.5 124.2
10 Jessica Johnson 11 Ann Arbor Huron (MI) 2 19:56.2 SR 123.9 9
11 Kelly Hall 12 Saline (MI) 9 19:57.3 PR 123.8
12 Haleigh Cummings 9 Saline (MI) 10 20:11.2 122.4
13 Olivia Cell 9 Ann Arbor Huron (MI) 3 20:15.5 122.0 10
14 Sarah Neumar 10 Ann Arbor Huron (MI) 4 20:30.8 PR 120.4 11
15 Riley Delben 11 Monroe (CA) 1 20:35.8 120.0 12
16 Kaitlyn Leist 11 Temperance Bedford (MI) 1 20:40.5 119.5 13
17 Lauren Halpern 12 Ann Arbor Skyline (MI) 1 20:43.4 119.2 14
18 Audie Tzalel 12 Ann Arbor Pioneer (MI) 1 20:53.8 SR 118.2 15
19 Gabby Steinl 12 Ann Arbor Huron (MI) 5 20:56.6 118.0 16
20 Megan Smit 9 Ann Arbor Huron (MI) 6 20:58.1 PR 117.8 17
21 Mira Lupu 11 Ann Arbor Pioneer (MI) 2 20:58.8 117.8 18
22 Emily Woods 11 Temperance Bedford (MI) 2 21:00.3 117.6 19
23 Anita Vander Meulen 11 Ann Arbor Skyline (MI) 2 21:05.8 117.1 20
24 Emily Altwies 9 Temperance Bedford (MI) 3 21:06.7 PR 117.0 21
25 Hannah Bartoshesky 9 Ann Arbor Huron (MI) 7 21:10.8 PR 116.7 22
26 Josie Granner 11 Ann Arbor Huron (MI) 8 21:18.8 115.9
27 Sam Greeley 10 Temperance Bedford (MI) 4 21:23.4 SR 115.5 23
28 Elena Boudreau 12 Ann Arbor Pioneer (MI) 3 21:37.8 114.2 24
29 Sam Kassmakis 11 Temperance Bedford (MI) 5 21:40.1 114.0 25
30 Jenny Perry 12 Temperance Bedford (MI) 6 21:47.3 113.4 26
31 Laura Kanji 10 Ann Arbor Huron (MI) 9 21:48.1 SR 113.3
32 Naomi Wilkin 11 Ann Arbor Pioneer (MI) 4 21:57.2 112.5 27
33 Danielle Howard 11 Ann Arbor Huron (MI) 10 22:06.3 111.8
34 Mackenzie Dalton 9 Ann Arbor Pioneer (MI) 5 22:13.3 111.2 28
35 Telana Kabisch 11 Ann Arbor Pioneer (MI) 6 22:14.2 111.1 29
36 Lindsey Velich 12 Temperance Bedford (MI) 7 22:15.4 111.0 30
37 Courtney Fornwald 10 Temperance Bedford (MI) 8 22:17.3 PR 110.8
38 Emily Allison 9 Ann Arbor Skyline (MI) 3 22:18.3 110.8 31
39 Kayla Chmiel 10 Temperance Bedford (MI) 9 22:20.8 SR 110.6
40 Alyssa Lowe 9 Temperance Bedford (MI) 10 22:26.4 PR 110.1
41 Paige Bork 12 Monroe (CA) 2 22:40.1 109.0 32
42 Sloane Lynch 9 Monroe (CA) 3 22:41 108.9 33
43 Kiaura Clark 12 Ann Arbor Skyline (MI) 4 22:43.2 108.8 34
44 Sanelma Heinonen 9 Ann Arbor Pioneer (MI) 7 23:06.8 106.9 35
45 Gabrielle Peck 9 Ann Arbor Skyline (MI) 5 23:07.8 106.8 36
46 Sandy Zilka 12 Monroe (CA) 4 23:15 106.3 37
47 Sophie Steinberg 9 Ann Arbor Skyline (MI) 6 23:24.9 105.5 38
48 Olivia Thorp 12 Ann Arbor Skyline (MI) 7 23:27.1 PR 105.3 39
49 Julia Poernbacher 12 Monroe (CA) 5 23:45.9 104.0 40
50 Kelsie Boyer 10 Monroe (CA) 6 24:45.7 PR 99.8 41
51 Madyson Farris 9 Monroe (CA) 7 25:15 97.8 42
Something wrong on this page? Report it →